createdAt,value
2018-12-31T00:01:32.384Z,5.03
2018-12-31T00:06:34.562Z,5.17
2018-12-31T00:11:37.656Z,3.90
2018-12-31T00:16:40.034Z,4.00
2018-12-31T00:21:42.276Z,4.00
2018-12-31T00:26:44.697Z,3.90
2018-12-31T00:31:47.116Z,3.13
2018-12-31T00:36:49.273Z,3.43
2018-12-31T00:41:51.440Z,3.57
2018-12-31T00:46:54.117Z,3.40
2018-12-31T00:51:56.346Z,3.27
2018-12-31T00:56:58.566Z,3.20
2018-12-31T01:02:01.203Z,3.47
2018-12-31T01:07:04.263Z,3.20
2018-12-31T01:12:06.893Z,4.27
2018-12-31T01:17:09.985Z,4.17
2018-12-31T01:22:12.427Z,3.80
2018-12-31T01:27:15.875Z,3.67
2018-12-31T01:32:18.334Z,3.07
2018-12-31T01:37:21.023Z,3.57
2018-12-31T01:42:23.555Z,4.00
2018-12-31T01:47:26.013Z,3.80
2018-12-31T01:52:28.958Z,3.07
2018-12-31T01:57:31.615Z,3.40
2018-12-31T02:02:33.826Z,3.50
2018-12-31T02:07:36.038Z,3.90
2018-12-31T02:12:38.295Z,3.40
2018-12-31T02:17:40.940Z,3.10
2018-12-31T02:22:43.926Z,3.17
2018-12-31T02:27:46.110Z,3.50
2018-12-31T02:32:48.320Z,3.87
2018-12-31T02:37:50.781Z,3.37
2018-12-31T02:42:52.944Z,3.27
2018-12-31T02:47:55.153Z,3.70
2018-12-31T02:52:57.783Z,3.30
2018-12-31T02:58:00.685Z,3.37
2018-12-31T03:03:02.901Z,4.00
2018-12-31T03:08:05.692Z,4.80
2018-12-31T03:13:08.151Z,4.63
2018-12-31T03:18:11.012Z,5.00
2018-12-31T03:23:13.916Z,4.83
2018-12-31T03:28:16.851Z,5.03
2018-12-31T03:33:19.210Z,5.63
2018-12-31T03:38:21.606Z,5.20
2018-12-31T03:43:23.787Z,5.30
2018-12-31T03:48:26.208Z,5.27
2018-12-31T03:53:28.897Z,6.83
2018-12-31T03:58:31.863Z,6.90
2018-12-31T04:03:34.529Z,6.20
2018-12-31T04:08:36.720Z,7.10
2018-12-31T04:13:38.934Z,6.37
2018-12-31T04:18:41.225Z,7.13
2018-12-31T04:23:43.664Z,7.10
2018-12-31T04:28:46.135Z,7.50
2018-12-31T04:33:48.341Z,7.83
2018-12-31T04:38:50.768Z,8.27
2018-12-31T04:43:53.784Z,7.40
2018-12-31T04:48:56.215Z,8.53
2018-12-31T04:53:58.401Z,8.63
2018-12-31T04:59:00.858Z,8.00
2018-12-31T05:04:03.038Z,8.47
2018-12-31T05:09:05.722Z,8.27
2018-12-31T05:14:08.057Z,9.27
2018-12-31T05:19:10.904Z,8.60
2018-12-31T05:24:13.639Z,9.23
2018-12-31T05:29:17.619Z,9.37
2018-12-31T05:34:20.294Z,9.60
2018-12-31T05:39:22.946Z,9.30
2018-12-31T05:44:26.166Z,9.67
2018-12-31T05:49:28.864Z,9.43
2018-12-31T05:54:31.116Z,9.93
2018-12-31T05:59:33.371Z,10.83
2018-12-31T06:04:35.795Z,10.97
2018-12-31T06:09:38.556Z,11.67
2018-12-31T06:14:41.766Z,11.43
2018-12-31T06:19:44.220Z,12.20
2018-12-31T06:24:47.173Z,11.63
2018-12-31T06:29:49.675Z,11.53
2018-12-31T06:34:52.106Z,12.70
2018-12-31T06:39:54.831Z,12.90
2018-12-31T06:44:57.282Z,13.10
2018-12-31T06:49:59.539Z,13.47
2018-12-31T06:55:02.239Z,11.87
2018-12-31T07:00:05.346Z,12.53
2018-12-31T07:05:07.545Z,12.13
2018-12-31T07:10:09.693Z,12.83
2018-12-31T07:15:11.898Z,12.20
2018-12-31T07:20:14.081Z,13.67
2018-12-31T07:25:17.149Z,12.70
2018-12-31T07:30:19.844Z,13.33
2018-12-31T07:35:22.559Z,12.90
2018-12-31T07:40:24.767Z,13.50
2018-12-31T07:45:26.976Z,12.70
2018-12-31T07:50:29.152Z,12.87
2018-12-31T07:55:31.443Z,13.20
2018-12-31T08:00:33.927Z,12.30
2018-12-31T08:05:37.310Z,10.73
2018-12-31T08:10:40.006Z,12.33
2018-12-31T08:15:42.685Z,11.27
2018-12-31T08:20:45.132Z,11.07
2018-12-31T08:25:48.514Z,11.27
2018-12-31T08:30:51.174Z,11.80
2018-12-31T08:35:53.288Z,10.00
2018-12-31T08:40:55.993Z,10.97
2018-12-31T08:45:59.164Z,11.37
2018-12-31T08:51:01.413Z,11.20
2018-12-31T08:56:04.148Z,10.73
2018-12-31T09:01:06.370Z,11.30
2018-12-31T09:06:08.612Z,11.87
2018-12-31T09:11:11.077Z,10.67
2018-12-31T09:16:13.512Z,11.27
2018-12-31T09:21:16.717Z,12.13
2018-12-31T09:26:18.917Z,11.17
2018-12-31T09:31:21.248Z,10.73
2018-12-31T09:36:23.584Z,10.47
2018-12-31T09:41:26.016Z,11.60
2018-12-31T09:46:28.427Z,10.37
2018-12-31T09:51:30.938Z,11.53
2018-12-31T09:56:33.635Z,10.60
2018-12-31T10:01:35.812Z,14.97
2018-12-31T10:06:37.948Z,9.97
2018-12-31T10:11:40.213Z,9.70
2018-12-31T10:16:42.425Z,10.83
2018-12-31T10:21:45.181Z,10.23
2018-12-31T10:26:48.051Z,10.00
2018-12-31T10:31:50.240Z,9.67
2018-12-31T10:36:52.435Z,8.83
2018-12-31T10:41:54.924Z,9.50
2018-12-31T10:46:57.569Z,8.70
2018-12-31T10:52:00.300Z,9.50
2018-12-31T10:57:02.581Z,8.87
2018-12-31T11:02:05.034Z,9.33
2018-12-31T11:07:07.425Z,9.27
2018-12-31T11:12:09.836Z,8.60
2018-12-31T11:17:11.999Z,8.93
2018-12-31T11:22:14.198Z,7.50
2018-12-31T11:27:17.060Z,8.10
2018-12-31T11:32:19.517Z,8.03
2018-12-31T11:37:21.701Z,7.93
2018-12-31T11:42:24.100Z,8.43
2018-12-31T11:47:26.281Z,8.10
2018-12-31T11:52:28.593Z,8.27
2018-12-31T11:57:30.785Z,7.60
2018-12-31T12:02:33.421Z,7.53
2018-12-31T12:07:36.089Z,7.93
2018-12-31T12:12:38.531Z,8.40
2018-12-31T12:17:40.919Z,7.47
2018-12-31T12:22:43.596Z,7.70
2018-12-31T12:27:46.342Z,7.27
2018-12-31T12:32:48.664Z,7.83
2018-12-31T12:37:51.165Z,7.97
2018-12-31T12:42:53.907Z,7.67
2018-12-31T12:47:56.791Z,7.73
2018-12-31T12:52:58.955Z,6.97
2018-12-31T12:58:01.640Z,6.67
2018-12-31T13:03:04.774Z,6.07
2018-12-31T13:08:07.426Z,6.63
2018-12-31T13:13:10.086Z,6.50
2018-12-31T13:18:12.493Z,5.13
2018-12-31T13:23:14.674Z,5.57
2018-12-31T13:28:17.780Z,9.83
2018-12-31T13:33:20.672Z,4.90
2018-12-31T13:38:23.244Z,4.63
2018-12-31T13:43:25.424Z,3.83
2018-12-31T13:48:27.560Z,4.77
2018-12-31T13:53:31.419Z,4.93
2018-12-31T13:58:33.732Z,4.50
2018-12-31T14:03:36.181Z,4.07
2018-12-31T14:08:38.532Z,5.50
2018-12-31T14:13:41.213Z,5.30
2018-12-31T14:18:43.381Z,5.63
2018-12-31T14:23:46.322Z,5.73
2018-12-31T14:28:48.712Z,7.20
2018-12-31T14:33:51.166Z,6.53
2018-12-31T14:38:53.500Z,7.73
2018-12-31T14:43:55.866Z,7.87
2018-12-31T14:48:59.178Z,8.33
2018-12-31T14:54:01.666Z,9.50
2018-12-31T14:59:03.858Z,10.67
2018-12-31T15:04:06.827Z,11.53
2018-12-31T15:09:09.032Z,12.30
2018-12-31T15:14:11.410Z,12.80
2018-12-31T15:19:13.576Z,12.90
2018-12-31T15:24:15.979Z,14.97
2018-12-31T15:29:18.603Z,14.20
2018-12-31T15:34:21.008Z,15.33
2018-12-31T15:39:24.383Z,16.30
2018-12-31T15:44:27.061Z,15.20
2018-12-31T15:49:29.730Z,19.43
2018-12-31T15:54:32.830Z,18.70
2018-12-31T15:59:35.082Z,16.33
2018-12-31T16:04:37.331Z,17.17
2018-12-31T16:09:39.848Z,18.10
2018-12-31T16:14:42.256Z,19.67
2018-12-31T16:19:44.678Z,18.50
2018-12-31T16:24:47.635Z,46.23
2018-12-31T16:29:49.857Z,21.13
2018-12-31T16:34:52.034Z,23.17
2018-12-31T16:39:54.211Z,18.97
2018-12-31T16:44:56.681Z,24.53
2018-12-31T16:49:58.881Z,18.07
2018-12-31T16:55:01.766Z,18.87
2018-12-31T17:00:04.984Z,19.23
2018-12-31T17:05:07.432Z,29.83
2018-12-31T17:10:09.850Z,28.07
2018-12-31T17:15:12.863Z,32.17
2018-12-31T17:20:15.294Z,25.03
2018-12-31T17:25:17.776Z,25.30
2018-12-31T17:30:20.061Z,37.70
2018-12-31T17:35:22.796Z,32.07
2018-12-31T17:40:24.988Z,27.70
2018-12-31T17:45:28.401Z,25.13
2018-12-31T17:50:30.585Z,25.43
2018-12-31T17:55:32.667Z,26.03
2018-12-31T18:00:35.469Z,23.40
2018-12-31T18:05:37.718Z,29.43
2018-12-31T18:10:40.126Z,34.93
2018-12-31T18:15:42.348Z,33.63
2018-12-31T18:20:44.511Z,40.27
2018-12-31T18:25:46.789Z,32.03
2018-12-31T18:30:49.212Z,31.70
2018-12-31T18:35:51.670Z,31.47
2018-12-31T18:40:53.840Z,38.20
2018-12-31T18:45:56.011Z,36.40
2018-12-31T18:50:58.907Z,41.77
2018-12-31T18:56:01.759Z,34.43
2018-12-31T19:01:04.159Z,33.97
2018-12-31T19:06:06.357Z,38.17
2018-12-31T19:11:09.005Z,46.27
2018-12-31T19:16:11.502Z,38.37
2018-12-31T19:21:13.667Z,40.40
2018-12-31T19:26:16.336Z,41.27
2018-12-31T19:31:18.592Z,47.77
2018-12-31T19:36:21.002Z,50.80
2018-12-31T19:41:23.674Z,41.20
2018-12-31T19:46:25.853Z,43.13
2018-12-31T19:51:28.443Z,51.63
2018-12-31T19:56:30.606Z,42.73
2018-12-31T20:01:33.291Z,41.77
2018-12-31T20:06:36.153Z,42.27
2018-12-31T20:11:39.800Z,51.27
2018-12-31T20:16:42.475Z,50.93
2018-12-31T20:21:44.863Z,61.57
2018-12-31T20:26:47.775Z,66.87
2018-12-31T20:31:50.262Z,68.40
2018-12-31T20:36:52.982Z,67.33
2018-12-31T20:41:55.282Z,83.93
2018-12-31T20:46:57.635Z,68.53
2018-12-31T20:52:00.787Z,66.97
2018-12-31T20:57:03.499Z,53.50
2018-12-31T21:02:06.425Z,51.90
2018-12-31T21:07:09.143Z,51.20
2018-12-31T21:12:11.426Z,45.20
2018-12-31T21:17:13.727Z,46.50
2018-12-31T21:22:15.897Z,51.03
2018-12-31T21:27:18.313Z,49.53
2018-12-31T21:32:20.955Z,43.50
2018-12-31T21:37:23.408Z,44.93
2018-12-31T21:42:25.881Z,35.87
2018-12-31T21:47:28.576Z,41.07
2018-12-31T21:52:30.806Z,37.30
2018-12-31T21:57:33.340Z,39.27
2018-12-31T22:02:36.256Z,30.77
2018-12-31T22:07:38.389Z,39.37
2018-12-31T22:12:40.866Z,35.87
2018-12-31T22:17:44.211Z,51.73
2018-12-31T22:22:46.624Z,42.90
2018-12-31T22:27:48.760Z,42.40
2018-12-31T22:32:51.326Z,36.77
2018-12-31T22:37:53.648Z,38.97
2018-12-31T22:42:56.061Z,36.53
2018-12-31T22:47:58.231Z,34.07
2018-12-31T22:53:01.155Z,32.63
2018-12-31T22:58:03.615Z,33.80
2018-12-31T23:03:06.350Z,42.83
2018-12-31T23:08:09.082Z,81.97
2018-12-31T23:13:11.756Z,262.37
2018-12-31T23:18:14.290Z,340.17
2018-12-31T23:23:18.114Z,451.10
2018-12-31T23:28:21.640Z,421.60
2018-12-31T23:33:23.852Z,335.70
2018-12-31T23:38:26.633Z,309.17
2018-12-31T23:43:28.922Z,339.13
2018-12-31T23:48:31.045Z,285.73
2018-12-31T23:53:33.279Z,248.60
2018-12-31T23:58:35.974Z,251.70
